createdAt,value
2022-08-11T00:01:15.937Z,10.20
2022-08-11T00:04:02.513Z,11.37
2022-08-11T00:06:33.540Z,10.15
2022-08-11T00:09:02.038Z,13.40
2022-08-11T00:11:53.492Z,11.52
2022-08-11T00:14:37.408Z,15.90
2022-08-11T00:17:08.766Z,10.17
2022-08-11T00:20:11.684Z,12.07
2022-08-11T00:22:30.585Z,9.20
2022-08-11T00:25:02.192Z,10.57
2022-08-11T00:27:38.334Z,10.87
2022-08-11T00:30:07.954Z,8.90
2022-08-11T00:32:37.373Z,11.13
2022-08-11T00:35:55.402Z,8.30
2022-08-11T00:37:56.068Z,12.47
2022-08-11T00:40:39.097Z,8.17
2022-08-11T00:43:21.403Z,10.70
2022-08-11T00:46:06.180Z,9.97
2022-08-11T00:48:47.856Z,8.90
2022-08-11T00:51:26.034Z,11.80
2022-08-11T00:54:43.783Z,13.30
2022-08-11T00:57:37.167Z,9.03
2022-08-11T01:00:13.385Z,10.10
2022-08-11T01:02:51.739Z,9.45
2022-08-11T01:05:54.930Z,9.33
2022-08-11T01:08:30.664Z,11.73
2022-08-11T01:11:09.501Z,9.60
2022-08-11T01:14:12.942Z,9.73
2022-08-11T01:17:03.464Z,9.03
2022-08-11T01:20:45.137Z,8.13
2022-08-11T01:23:12.411Z,10.57
2022-08-11T01:26:09.921Z,11.10
2022-08-11T01:29:10.212Z,7.93
2022-08-11T01:32:22.464Z,9.70
2022-08-11T01:35:21.852Z,8.60
2022-08-11T01:38:27.157Z,12.70
2022-08-11T01:41:06.013Z,10.07
2022-08-11T01:43:51.223Z,9.40
2022-08-11T01:46:43.645Z,11.37
2022-08-11T01:50:07.317Z,7.20
2022-08-11T01:52:30.400Z,12.37
2022-08-11T01:55:27.905Z,9.83
2022-08-11T01:58:08.576Z,10.07
2022-08-11T02:00:48.825Z,11.87
2022-08-11T02:03:48.619Z,7.23
2022-08-11T02:06:50.573Z,7.43
2022-08-11T02:09:32.018Z,9.87
2022-08-11T02:12:15.287Z,6.67
2022-08-11T02:15:36.430Z,8.73
2022-08-11T02:18:47.007Z,9.73
2022-08-11T02:21:43.181Z,12.53
2022-08-11T02:24:18.071Z,10.30
2022-08-11T02:26:50.353Z,7.63
2022-08-11T02:29:46.906Z,8.33
2022-08-11T02:32:41.835Z,9.60
2022-08-11T02:35:19.039Z,8.07
2022-08-11T02:38:21.950Z,8.97
2022-08-11T02:41:01.049Z,8.87
2022-08-11T02:43:39.767Z,7.77
2022-08-11T02:46:31.685Z,9.20
2022-08-11T02:49:38.101Z,12.10
2022-08-11T02:52:17.604Z,8.20
2022-08-11T02:55:09.699Z,6.63
2022-08-11T02:58:12.997Z,12.13
2022-08-11T03:01:27.916Z,9.47
2022-08-11T03:04:06.952Z,7.93
2022-08-11T03:07:00.096Z,6.77
2022-08-11T03:09:38.627Z,8.63
2022-08-11T03:12:42.257Z,8.70
2022-08-11T03:16:14.575Z,8.60
2022-08-11T03:19:09.105Z,11.50
2022-08-11T03:22:01.695Z,7.30
2022-08-11T03:24:40.283Z,7.57
2022-08-11T03:27:21.535Z,6.73
2022-08-11T03:30:19.401Z,8.27
2022-08-11T03:33:12.710Z,8.27
2022-08-11T03:36:14.115Z,9.80
2022-08-11T03:39:03.516Z,7.93
2022-08-11T03:42:02.778Z,10.10
2022-08-11T03:45:12.948Z,12.03
2022-08-11T03:47:58.091Z,9.70
2022-08-11T03:50:25.122Z,8.20
2022-08-11T03:53:16.933Z,7.17
2022-08-11T03:56:14.370Z,8.30
2022-08-11T03:59:08.315Z,11.73
2022-08-11T04:02:08.623Z,9.13
2022-08-11T04:05:24.812Z,11.63
2022-08-11T04:08:13.090Z,10.07
2022-08-11T04:11:03.729Z,9.50
2022-08-11T04:14:26.122Z,11.87
2022-08-11T04:17:34.534Z,10.40
2022-08-11T04:20:37.510Z,9.47
2022-08-11T04:24:35.706Z,8.73
2022-08-11T04:26:50.019Z,9.33
2022-08-11T04:30:03.518Z,9.00
2022-08-11T04:32:59.913Z,11.67
2022-08-11T04:35:39.157Z,14.27
2022-08-11T04:38:45.012Z,15.93
2022-08-11T04:41:33.420Z,14.33
2022-08-11T04:44:24.132Z,12.57
2022-08-11T04:48:03.598Z,17.33
2022-08-11T04:51:00.734Z,13.77
2022-08-11T04:54:28.770Z,10.77
2022-08-11T04:57:23.345Z,13.57
2022-08-11T05:00:28.846Z,14.17
2022-08-11T05:03:10.118Z,14.60
2022-08-11T05:06:14.324Z,12.73
2022-08-11T05:08:56.282Z,11.43
2022-08-11T05:11:35.149Z,16.50
2022-08-11T05:14:47.879Z,10.00
2022-08-11T05:17:40.809Z,12.30
2022-08-11T05:20:31.082Z,12.60
2022-08-11T05:23:24.051Z,8.45
2022-08-11T05:26:47.117Z,12.43
2022-08-11T05:29:24.223Z,13.57
2022-08-11T05:32:17.763Z,10.32
2022-08-11T05:34:53.039Z,11.77
2022-08-11T05:37:34.618Z,8.70
2022-08-11T05:40:31.459Z,8.85
2022-08-11T05:43:25.387Z,10.30
2022-08-11T05:46:19.585Z,10.82
2022-08-11T05:49:06.169Z,12.70
2022-08-11T05:52:16.375Z,8.73
2022-08-11T05:55:05.367Z,8.18
2022-08-11T05:57:49.575Z,10.85
2022-08-11T06:00:19.955Z,10.18
2022-08-11T06:02:55.353Z,10.00
2022-08-11T06:05:23.386Z,5.40
2022-08-11T06:07:57.013Z,26.08
2022-08-11T06:10:33.537Z,13.60
2022-08-11T06:13:01.778Z,7.18
2022-08-11T06:15:31.155Z,8.88
2022-08-11T06:18:01.430Z,5.65
2022-08-11T06:20:36.573Z,6.03
2022-08-11T06:23:06.764Z,8.75
2022-08-11T06:25:35.934Z,5.15
2022-08-11T06:28:07.401Z,8.80
2022-08-11T06:30:44.071Z,7.75
2022-08-11T06:33:29.519Z,13.52
2022-08-11T06:36:10.932Z,8.82
2022-08-11T06:39:10.418Z,7.95
2022-08-11T06:41:54.957Z,7.53
2022-08-11T06:44:32.601Z,4.47
2022-08-11T06:47:08.905Z,8.70
2022-08-11T06:50:01.464Z,6.75
2022-08-11T06:52:37.608Z,10.52
2022-08-11T06:55:58.190Z,7.43
2022-08-11T06:58:41.512Z,6.47
2022-08-11T07:01:14.738Z,12.63
2022-08-11T07:03:48.534Z,11.13
2022-08-11T07:06:50.255Z,6.55
2022-08-11T07:09:42.326Z,7.28
2022-08-11T07:12:56.831Z,12.13
2022-08-11T07:16:10.940Z,5.65
2022-08-11T07:18:52.957Z,4.35
2022-08-11T07:22:00.791Z,3.92
2022-08-11T07:25:02.997Z,6.32
2022-08-11T07:28:00.983Z,6.78
2022-08-11T07:30:28.751Z,5.78
2022-08-11T07:32:59.543Z,3.25
2022-08-11T07:36:05.455Z,4.80
2022-08-11T07:38:47.455Z,4.15
2022-08-11T07:41:17.393Z,6.07
2022-08-11T07:43:49.918Z,5.72
2022-08-11T07:46:38.108Z,3.75
2022-08-11T07:49:26.564Z,4.05
2022-08-11T07:52:13.200Z,3.63
2022-08-11T07:54:41.564Z,7.95
2022-08-11T07:57:53.241Z,4.75
2022-08-11T08:00:34.999Z,4.55
2022-08-11T08:03:22.080Z,3.20
2022-08-11T08:06:35.606Z,3.65
2022-08-11T08:09:16.495Z,4.35
2022-08-11T08:12:05.367Z,3.70
2022-08-11T08:14:51.496Z,4.95
2022-08-11T08:17:38.208Z,2.53
2022-08-11T08:20:07.924Z,8.27
2022-08-11T08:22:48.507Z,9.10
2022-08-11T08:25:18.081Z,5.32
2022-08-11T08:27:45.751Z,4.85
2022-08-11T08:30:32.327Z,5.22
2022-08-11T08:33:01.132Z,8.00
2022-08-11T08:35:32.829Z,5.22
2022-08-11T08:38:00.938Z,3.42
2022-08-11T08:40:28.297Z,5.63
2022-08-11T08:43:17.357Z,2.42
2022-08-11T08:45:45.298Z,4.63
2022-08-11T08:48:16.293Z,7.32
2022-08-11T08:51:08.809Z,2.15
2022-08-11T08:53:51.740Z,2.78
2022-08-11T08:56:25.155Z,3.75
2022-08-11T08:58:52.403Z,3.15
2022-08-11T09:01:22.583Z,3.20
2022-08-11T09:04:04.767Z,3.08
2022-08-11T09:06:39.886Z,4.70
2022-08-11T09:09:12.298Z,3.40
2022-08-11T09:11:50.509Z,4.20
2022-08-11T09:14:20.419Z,3.42
2022-08-11T09:16:48.863Z,7.30
2022-08-11T09:19:19.174Z,4.15
2022-08-11T09:22:09.164Z,2.95
2022-08-11T09:24:56.595Z,3.70
2022-08-11T09:27:24.124Z,3.83
2022-08-11T09:29:51.834Z,2.28
2022-08-11T09:32:23.451Z,1.77
2022-08-11T09:34:52.463Z,4.15
2022-08-11T09:37:55.372Z,4.22
2022-08-11T09:40:31.003Z,3.92
2022-08-11T09:43:23.963Z,4.85
2022-08-11T09:45:53.121Z,3.10
2022-08-11T09:48:21.930Z,2.08
2022-08-11T09:50:51.297Z,2.13
2022-08-11T09:53:36.069Z,1.73
2022-08-11T09:56:31.730Z,4.07
2022-08-11T09:58:59.497Z,4.95
2022-08-11T10:01:30.877Z,3.20
2022-08-11T10:04:15.457Z,4.13
2022-08-11T10:07:04.488Z,1.50
2022-08-11T10:09:56.830Z,3.08
2022-08-11T10:12:27.982Z,4.15
2022-08-11T10:15:17.280Z,3.35
2022-08-11T10:18:07.461Z,3.45
2022-08-11T10:20:37.085Z,10.00
2022-08-11T10:23:23.626Z,3.15
2022-08-11T10:26:09.916Z,2.63
2022-08-11T10:28:55.886Z,2.75
2022-08-11T10:31:57.150Z,2.45
2022-08-11T10:34:29.190Z,2.67
2022-08-11T10:36:58.402Z,3.13
2022-08-11T10:39:27.486Z,1.83
2022-08-11T10:42:30.057Z,2.40
2022-08-11T10:45:04.216Z,6.07
2022-08-11T10:47:44.343Z,3.97
2022-08-11T10:50:34.433Z,1.67
2022-08-11T10:53:21.285Z,3.40
2022-08-11T10:56:07.348Z,1.58
2022-08-11T10:58:48.601Z,3.08
2022-08-11T11:01:27.366Z,3.70
2022-08-11T11:04:17.940Z,11.10
2022-08-11T11:07:05.825Z,6.95
2022-08-11T11:09:39.605Z,2.83
2022-08-11T11:12:43.093Z,4.43
2022-08-11T11:15:31.754Z,2.95
2022-08-11T11:18:09.500Z,3.53
2022-08-11T11:21:05.453Z,4.80
2022-08-11T11:23:50.988Z,2.90
2022-08-11T11:26:38.528Z,2.33
2022-08-11T11:29:20.681Z,3.60
2022-08-11T11:32:29.149Z,1.35
2022-08-11T11:35:13.807Z,2.42
2022-08-11T11:37:56.093Z,5.80
2022-08-11T11:40:32.818Z,1.73
2022-08-11T11:43:00.966Z,2.65
2022-08-11T11:45:28.408Z,1.88
2022-08-11T11:47:59.884Z,5.97
2022-08-11T11:50:34.566Z,3.17
2022-08-11T11:53:05.191Z,1.95
2022-08-11T11:55:32.950Z,5.22
2022-08-11T11:58:22.224Z,2.55
2022-08-11T12:01:09.546Z,3.22
2022-08-11T12:03:38.620Z,1.20
2022-08-11T12:06:08.269Z,3.92
2022-08-11T12:08:37.121Z,1.95
2022-08-11T12:11:25.299Z,3.92
2022-08-11T12:13:54.016Z,3.72
2022-08-11T12:16:34.728Z,4.78
2022-08-11T12:19:15.181Z,3.22
2022-08-11T12:22:01.483Z,3.45
2022-08-11T12:24:53.342Z,1.75
2022-08-11T12:27:24.046Z,4.47
2022-08-11T12:29:59.950Z,3.33
2022-08-11T12:32:31.722Z,6.63
2022-08-11T12:34:58.935Z,1.80
2022-08-11T12:37:44.957Z,3.83
2022-08-11T12:41:12.099Z,2.60
2022-08-11T12:43:56.285Z,1.60
2022-08-11T12:46:31.949Z,4.28
2022-08-11T12:49:25.544Z,2.10
2022-08-11T12:52:14.047Z,1.88
2022-08-11T12:54:48.038Z,2.63
2022-08-11T12:57:44.396Z,1.38
2022-08-11T13:00:30.704Z,1.02
2022-08-11T13:03:17.369Z,1.45
2022-08-11T13:05:46.649Z,3.08
2022-08-11T13:08:17.363Z,10.75
2022-08-11T13:11:04.533Z,3.97
2022-08-11T13:13:52.719Z,2.40
2022-08-11T13:16:20.757Z,1.75
2022-08-11T13:18:48.648Z,2.67
2022-08-11T13:21:20.716Z,2.55
2022-08-11T13:24:01.388Z,4.10
2022-08-11T13:26:48.122Z,1.48
2022-08-11T13:29:28.774Z,4.65
2022-08-11T13:32:02.061Z,4.30
2022-08-11T13:34:35.319Z,5.40
2022-08-11T13:37:05.264Z,5.72
2022-08-11T13:39:34.831Z,5.95
2022-08-11T13:42:03.699Z,5.38
2022-08-11T13:44:35.967Z,5.45
2022-08-11T13:47:04.794Z,3.20
2022-08-11T13:49:35.065Z,4.53
2022-08-11T13:52:03.540Z,4.80
2022-08-11T13:54:34.477Z,4.88
2022-08-11T13:57:09.321Z,3.53
2022-08-11T13:59:52.007Z,2.22
2022-08-11T14:02:29.485Z,4.63
2022-08-11T14:05:15.583Z,2.05
2022-08-11T14:07:53.439Z,1.65
2022-08-11T14:10:24.602Z,4.03
2022-08-11T14:13:17.678Z,1.90
2022-08-11T14:15:46.712Z,3.00
2022-08-11T14:18:25.501Z,3.40
2022-08-11T14:21:20.874Z,2.00
2022-08-11T14:23:55.353Z,2.15
2022-08-11T14:26:23.635Z,3.90
2022-08-11T14:28:55.252Z,5.03
2022-08-11T14:31:28.356Z,1.30
2022-08-11T14:34:00.512Z,3.92
2022-08-11T14:36:52.332Z,2.72
2022-08-11T14:39:37.290Z,4.07
2022-08-11T14:42:24.964Z,2.85
2022-08-11T14:45:14.605Z,2.70
2022-08-11T14:47:44.050Z,3.00
2022-08-11T14:50:17.989Z,3.90
2022-08-11T14:52:53.733Z,3.67
2022-08-11T14:55:40.981Z,2.42
2022-08-11T14:58:10.997Z,3.67
2022-08-11T15:00:39.397Z,1.52
2022-08-11T15:03:11.191Z,3.85
2022-08-11T15:05:57.176Z,3.40
2022-08-11T15:08:53.694Z,3.00
2022-08-11T15:11:49.294Z,1.98
2022-08-11T15:14:41.447Z,3.55
2022-08-11T15:17:10.285Z,3.85
2022-08-11T15:20:01.107Z,4.43
2022-08-11T15:22:46.563Z,4.15
2022-08-11T15:25:14.002Z,2.67
2022-08-11T15:28:03.941Z,3.08
2022-08-11T15:30:50.388Z,3.05
2022-08-11T15:33:38.096Z,4.68
2022-08-11T15:36:27.462Z,5.22
2022-08-11T15:39:20.703Z,1.85
2022-08-11T15:42:16.140Z,6.00
2022-08-11T15:45:06.066Z,2.28
2022-08-11T15:47:48.656Z,3.00
2022-08-11T15:50:20.335Z,4.50
2022-08-11T15:52:56.593Z,2.00
2022-08-11T15:55:25.481Z,2.00
2022-08-11T15:58:13.841Z,3.42
2022-08-11T16:01:04.271Z,1.52
2022-08-11T16:04:14.349Z,1.08
2022-08-11T16:06:50.378Z,2.75
2022-08-11T16:09:46.013Z,3.30
2022-08-11T16:12:26.595Z,3.85
2022-08-11T16:15:14.840Z,5.20
2022-08-11T16:18:02.035Z,2.42
2022-08-11T16:20:30.847Z,4.95
2022-08-11T16:23:02.680Z,3.45
2022-08-11T16:26:30.390Z,3.33
2022-08-11T16:28:21.732Z,3.22
2022-08-11T16:30:49.745Z,4.72
2022-08-11T16:33:48.890Z,3.67
2022-08-11T16:36:24.725Z,1.65
2022-08-11T16:38:53.879Z,2.65
2022-08-11T16:41:44.363Z,2.35
2022-08-11T16:44:36.949Z,2.20
2022-08-11T16:48:02.596Z,2.95
2022-08-11T16:50:12.293Z,2.65
2022-08-11T16:52:39.237Z,1.83
2022-08-11T16:55:06.641Z,6.47
2022-08-11T16:57:52.924Z,1.20
2022-08-11T17:00:19.921Z,2.58
2022-08-11T17:03:10.657Z,1.48
2022-08-11T17:06:03.297Z,3.33
2022-08-11T17:08:57.039Z,4.25
2022-08-11T17:11:46.579Z,1.50
2022-08-11T17:14:16.935Z,2.42
2022-08-11T17:16:49.262Z,6.50
2022-08-11T17:20:40.541Z,4.63
2022-08-11T17:22:39.293Z,6.88
2022-08-11T17:25:08.289Z,5.75
2022-08-11T17:27:37.188Z,6.80
2022-08-11T17:30:08.233Z,8.32
2022-08-11T17:33:00.797Z,2.95
2022-08-11T17:35:38.741Z,5.85
2022-08-11T17:38:09.986Z,4.93
2022-08-11T17:41:05.394Z,7.32
2022-08-11T17:43:51.466Z,4.20
2022-08-11T17:46:38.096Z,4.72
2022-08-11T17:49:11.302Z,5.35
2022-08-11T17:51:57.979Z,5.72
2022-08-11T17:54:44.421Z,6.13
2022-08-11T17:57:33.282Z,5.88
2022-08-11T18:00:02.385Z,4.88
2022-08-11T18:02:52.674Z,6.45
2022-08-11T18:05:22.958Z,7.43
2022-08-11T18:08:11.853Z,4.25
2022-08-11T18:11:00.631Z,7.40
2022-08-11T18:13:50.016Z,6.93
2022-08-11T18:16:36.987Z,5.05
2022-08-11T18:19:24.434Z,5.53
2022-08-11T18:22:15.575Z,6.40
2022-08-11T18:25:09.291Z,9.70
2022-08-11T18:27:59.484Z,9.85
2022-08-11T18:30:46.377Z,5.65
2022-08-11T18:33:56.729Z,11.70
2022-08-11T18:36:42.493Z,7.68
2022-08-11T18:39:31.088Z,12.68
2022-08-11T18:42:29.530Z,7.88
2022-08-11T18:45:20.213Z,5.50
2022-08-11T18:48:09.334Z,7.40
2022-08-11T18:51:29.717Z,9.77
2022-08-11T18:54:09.015Z,9.50
2022-08-11T18:56:54.983Z,7.80
2022-08-11T18:59:45.064Z,9.60
2022-08-11T19:02:33.820Z,10.45
2022-08-11T19:06:05.923Z,8.40
2022-08-11T19:08:49.080Z,7.85
2022-08-11T19:11:36.513Z,6.50
2022-08-11T19:14:30.212Z,5.88
2022-08-11T19:17:44.683Z,8.32
2022-08-11T19:20:31.584Z,5.50
2022-08-11T19:23:17.721Z,5.97
2022-08-11T19:26:05.024Z,6.28
2022-08-11T19:28:53.162Z,6.38
2022-08-11T19:31:44.330Z,9.65
2022-08-11T19:34:36.603Z,4.45
2022-08-11T19:37:25.323Z,6.20
2022-08-11T19:40:22.713Z,8.75
2022-08-11T19:43:14.816Z,8.73
2022-08-11T19:46:12.156Z,6.22
2022-08-11T19:48:59.963Z,6.65
2022-08-11T19:51:47.131Z,8.57
2022-08-11T19:54:43.024Z,7.82
2022-08-11T19:57:28.994Z,8.90
2022-08-11T20:00:15.399Z,7.35
2022-08-11T20:03:00.805Z,6.60
2022-08-11T20:05:55.721Z,5.90
2022-08-11T20:08:48.455Z,7.28
2022-08-11T20:11:36.466Z,5.18
2022-08-11T20:14:22.741Z,6.43
2022-08-11T20:17:10.711Z,9.05
2022-08-11T20:22:46.207Z,9.93
2022-08-11T20:25:32.952Z,6.88
2022-08-11T20:28:18.603Z,6.13
2022-08-11T20:31:05.103Z,7.30
2022-08-11T20:33:51.904Z,10.63
2022-08-11T20:36:37.401Z,9.13
2022-08-11T20:39:23.849Z,5.32
2022-08-11T20:42:11.391Z,8.57
2022-08-11T20:44:59.870Z,5.95
2022-08-11T20:47:58.854Z,8.60
2022-08-11T20:50:46.884Z,7.70
2022-08-11T20:56:45.562Z,7.95
2022-08-11T20:59:33.278Z,9.50
2022-08-11T21:02:29.984Z,8.43
2022-08-11T21:05:19.411Z,7.40
2022-08-11T21:08:09.630Z,7.63
2022-08-11T21:11:00.501Z,6.13
2022-08-11T21:13:52.637Z,11.07
2022-08-11T21:16:47.705Z,12.43
2022-08-11T21:20:01.510Z,8.07
2022-08-11T21:23:23.311Z,9.57
2022-08-11T21:26:15.223Z,10.90
2022-08-11T21:29:02.348Z,8.43
2022-08-11T21:31:51.474Z,9.13
2022-08-11T21:34:39.822Z,11.63
2022-08-11T21:37:27.726Z,9.85
2022-08-11T21:40:17.410Z,7.07
2022-08-11T21:43:05.875Z,10.45
2022-08-11T21:45:54.199Z,10.27
2022-08-11T21:48:41.442Z,10.25
2022-08-11T21:51:26.916Z,5.93
2022-08-11T21:54:13.479Z,9.20
2022-08-11T21:56:59.431Z,8.57
2022-08-11T22:00:10.604Z,13.25
2022-08-11T22:03:00.865Z,14.20
2022-08-11T22:05:50.972Z,11.85
2022-08-11T22:08:37.184Z,6.63
2022-08-11T22:11:31.934Z,9.63
2022-08-11T22:14:20.461Z,10.00
2022-08-11T22:17:05.821Z,8.95
2022-08-11T22:19:52.991Z,9.73
2022-08-11T22:22:52.075Z,7.60
2022-08-11T22:25:51.217Z,8.95
2022-08-11T22:28:37.919Z,9.90
2022-08-11T22:31:24.394Z,5.78
2022-08-11T22:34:10.003Z,6.55
2022-08-11T22:36:56.571Z,5.95
2022-08-11T22:39:43.673Z,6.50
2022-08-11T22:42:33.304Z,8.82
2022-08-11T22:45:20.623Z,6.35
2022-08-11T22:48:07.627Z,7.18
2022-08-11T22:50:56.130Z,7.80
2022-08-11T22:53:57.329Z,10.23
2022-08-11T22:56:45.852Z,10.13
2022-08-11T22:59:33.102Z,11.93
2022-08-11T23:02:19.447Z,6.88
2022-08-11T23:05:06.941Z,8.65
2022-08-11T23:07:54.148Z,9.80
2022-08-11T23:10:41.164Z,9.80
2022-08-11T23:13:27.752Z,8.18
2022-08-11T23:16:14.437Z,9.73
2022-08-11T23:19:00.871Z,9.48
2022-08-11T23:21:47.958Z,10.90
2022-08-11T23:24:34.668Z,11.98
2022-08-11T23:27:21.959Z,11.07
2022-08-11T23:30:11.240Z,11.85
2022-08-11T23:32:59.367Z,10.35
2022-08-11T23:35:53.986Z,11.02
2022-08-11T23:38:43.482Z,13.00
2022-08-11T23:41:31.793Z,11.55
2022-08-11T23:44:18.686Z,10.65
2022-08-11T23:47:07.303Z,7.28
2022-08-11T23:49:55.856Z,6.93
2022-08-11T23:52:43.820Z,11.32
2022-08-11T23:55:29.532Z,9.30
2022-08-11T23:58:16.202Z,10.20
